YSNW/NOA METAR and TAF weather

Enter ICAO airport designator
Station Type Date Time Source
YSNW METAR 2019/02/23 22:00 UTC NOAA

YSNW 232200Z AUTO 18011KT 9999 // SCT040 OVC055 19/11 Q1028


Station Type Date Time Source
YSNW Decoded METAR 2019/02/23 22:00 UTC NOAA

Nowra Ran Air Station, Australia (YSNW) 34-57S 150-32E 110M
Feb 23, 2019 - 05:00 PM EST / 2019.02.23 2200 UTC
Wind: from the S (180 degrees) at 13 MPH (11 KT):0
Visibility: greater than 7 mile(s):0
Sky conditions: overcast
Temperature: 66 F (19 C)
Dew Point: 51 F (11 C)
Relative Humidity: 59%
Pressure (altimeter): 30.36 in. Hg (1028 hPa)
ob: YSNW 232200Z AUTO 18011KT 9999 // SCT040 OVC055 19/11 Q1028
cycle: 22

Station Type Date Time Source
YSNW TAF UTC NOAA

Error!


Example: see airport list